createdAt,value
2022-07-31T00:01:21.302Z,100.00
2022-07-31T00:03:47.974Z,100.00
2022-07-31T00:06:14.756Z,100.00
2022-07-31T00:08:41.282Z,100.00
2022-07-31T00:11:07.790Z,100.00
2022-07-31T00:13:57.363Z,100.00
2022-07-31T00:16:20.981Z,100.00
2022-07-31T00:18:47.555Z,100.00
2022-07-31T00:21:14.273Z,100.00
2022-07-31T00:23:43.566Z,100.00
2022-07-31T00:26:10.446Z,100.00
2022-07-31T00:28:37.465Z,100.00
2022-07-31T00:31:04.230Z,100.00
2022-07-31T00:33:32.013Z,100.00
2022-07-31T00:35:58.714Z,100.00
2022-07-31T00:38:26.975Z,100.00
2022-07-31T00:40:54.341Z,100.00
2022-07-31T00:43:21.223Z,100.00
2022-07-31T00:45:51.731Z,100.00
2022-07-31T00:48:25.965Z,100.00
2022-07-31T00:50:55.041Z,100.00
2022-07-31T00:53:21.574Z,100.00
2022-07-31T00:55:51.219Z,100.00
2022-07-31T00:58:19.925Z,100.00
2022-07-31T01:00:47.034Z,100.00
2022-07-31T01:03:14.589Z,100.00
2022-07-31T01:05:41.816Z,100.00
2022-07-31T01:08:08.656Z,100.00
2022-07-31T01:10:35.189Z,100.00
2022-07-31T01:13:08.344Z,100.00
2022-07-31T01:15:37.703Z,100.00
2022-07-31T01:18:06.244Z,100.00
2022-07-31T01:20:35.759Z,100.00
2022-07-31T01:23:31.069Z,100.00
2022-07-31T01:26:27.121Z,100.00
2022-07-31T01:29:06.187Z,100.00
2022-07-31T01:31:45.085Z,100.00
2022-07-31T01:34:23.546Z,100.00
2022-07-31T01:36:58.975Z,100.00
2022-07-31T01:39:26.980Z,100.00
2022-07-31T01:42:02.726Z,100.00
2022-07-31T01:44:31.536Z,100.00
2022-07-31T01:46:58.705Z,100.00
2022-07-31T01:49:28.131Z,100.00
2022-07-31T01:52:04.792Z,100.00
2022-07-31T01:54:33.928Z,100.00
2022-07-31T01:57:03.371Z,100.00
2022-07-31T01:59:32.869Z,100.00
2022-07-31T02:02:04.589Z,100.00
2022-07-31T02:04:33.840Z,100.00
2022-07-31T02:07:02.057Z,100.00
2022-07-31T02:09:29.165Z,100.00
2022-07-31T02:11:56.963Z,100.00
2022-07-31T02:14:24.958Z,100.00
2022-07-31T02:16:51.766Z,100.00
2022-07-31T02:19:20.656Z,100.00
2022-07-31T02:21:49.814Z,100.00
2022-07-31T02:24:17.650Z,100.00
2022-07-31T02:26:44.664Z,100.00
2022-07-31T02:29:19.557Z,100.00
2022-07-31T02:32:02.484Z,100.00
2022-07-31T02:34:32.389Z,100.00
2022-07-31T02:37:01.773Z,100.00
2022-07-31T02:39:31.065Z,100.00
2022-07-31T02:42:01.248Z,100.00
2022-07-31T02:44:31.677Z,100.00
2022-07-31T02:47:02.277Z,100.00
2022-07-31T02:49:30.150Z,100.00
2022-07-31T02:51:57.143Z,100.00
2022-07-31T02:54:26.184Z,100.00
2022-07-31T02:56:53.502Z,100.00
2022-07-31T02:59:21.990Z,100.00
2022-07-31T03:01:48.461Z,100.00
2022-07-31T03:04:14.940Z,100.00
2022-07-31T03:06:41.480Z,100.00
2022-07-31T03:09:07.905Z,100.00
2022-07-31T03:11:34.430Z,100.00
2022-07-31T03:14:03.452Z,100.00
2022-07-31T03:16:31.828Z,100.00
2022-07-31T03:18:58.361Z,100.00
2022-07-31T03:21:25.579Z,100.00
2022-07-31T03:23:52.324Z,100.00
2022-07-31T03:26:19.097Z,100.00
2022-07-31T03:28:45.809Z,100.00
2022-07-31T03:31:12.324Z,100.00
2022-07-31T03:33:38.748Z,100.00
2022-07-31T03:36:05.771Z,100.00
2022-07-31T03:38:39.104Z,100.00
2022-07-31T03:41:10.718Z,100.00
2022-07-31T03:43:44.024Z,100.00
2022-07-31T03:46:16.894Z,100.00
2022-07-31T03:48:43.649Z,100.00
2022-07-31T03:51:10.280Z,100.00
2022-07-31T03:53:37.903Z,100.00
2022-07-31T03:56:06.334Z,100.00
2022-07-31T03:58:33.215Z,100.00
2022-07-31T04:00:59.861Z,100.00
2022-07-31T04:03:30.987Z,100.00
2022-07-31T04:05:57.592Z,100.00
2022-07-31T04:08:24.035Z,100.00
2022-07-31T04:10:50.512Z,100.00
2022-07-31T04:13:16.951Z,100.00
2022-07-31T04:15:43.409Z,100.00
2022-07-31T04:18:09.823Z,100.00
2022-07-31T04:20:36.271Z,100.00
2022-07-31T04:23:04.021Z,100.00
2022-07-31T04:25:33.591Z,100.00
2022-07-31T04:28:01.321Z,100.00
2022-07-31T04:30:27.736Z,100.00
2022-07-31T04:32:54.111Z,100.00
2022-07-31T04:35:20.620Z,100.00
2022-07-31T04:37:48.555Z,100.00
2022-07-31T04:40:15.859Z,100.00
2022-07-31T04:42:42.348Z,100.00
2022-07-31T04:45:09.691Z,100.00
2022-07-31T04:47:37.027Z,100.00
2022-07-31T04:50:04.709Z,100.00
2022-07-31T04:52:31.171Z,100.00
2022-07-31T04:54:57.565Z,100.00
2022-07-31T04:57:24.120Z,100.00
2022-07-31T04:59:59.220Z,100.00
2022-07-31T05:02:27.245Z,100.00
2022-07-31T05:04:56.874Z,100.00
2022-07-31T05:07:25.845Z,100.00
2022-07-31T05:09:55.145Z,100.00
2022-07-31T05:12:21.552Z,100.00
2022-07-31T05:14:48.075Z,100.00
2022-07-31T05:17:14.612Z,100.00
2022-07-31T05:19:41.065Z,100.00
2022-07-31T05:22:07.675Z,100.00
2022-07-31T05:24:34.434Z,100.00
2022-07-31T05:27:04.627Z,100.00
2022-07-31T05:29:32.434Z,100.00
2022-07-31T05:32:00.800Z,100.00
2022-07-31T05:34:29.898Z,100.00
2022-07-31T05:36:57.317Z,100.00
2022-07-31T05:39:26.740Z,100.00
2022-07-31T05:41:53.161Z,100.00
2022-07-31T05:44:19.783Z,100.00
2022-07-31T05:46:46.497Z,100.00
2022-07-31T05:49:13.145Z,100.00
2022-07-31T05:51:43.349Z,100.00
2022-07-31T05:54:09.779Z,100.00
2022-07-31T05:56:36.223Z,100.00
2022-07-31T05:59:02.660Z,100.00
2022-07-31T06:01:29.179Z,100.00
2022-07-31T06:03:55.651Z,100.00
2022-07-31T06:06:22.118Z,100.00
2022-07-31T06:08:48.695Z,100.00
2022-07-31T06:11:15.137Z,100.00
2022-07-31T06:13:43.192Z,100.00
2022-07-31T06:16:14.375Z,100.00
2022-07-31T06:18:41.520Z,100.00
2022-07-31T06:21:07.941Z,100.00
2022-07-31T06:23:34.408Z,100.00
2022-07-31T06:26:00.909Z,100.00
2022-07-31T06:28:35.395Z,100.00
2022-07-31T06:31:18.365Z,100.00
2022-07-31T06:33:48.198Z,100.00
2022-07-31T06:36:15.798Z,100.00
2022-07-31T06:38:42.293Z,100.00
2022-07-31T06:41:08.799Z,100.00
2022-07-31T06:43:35.270Z,100.00
2022-07-31T06:46:01.762Z,100.00
2022-07-31T06:48:28.406Z,100.00
2022-07-31T06:51:14.486Z,100.00
2022-07-31T06:53:41.526Z,100.00
2022-07-31T06:56:07.939Z,100.00
2022-07-31T06:58:34.349Z,100.00
2022-07-31T07:01:00.810Z,100.00
2022-07-31T07:03:27.263Z,100.00
2022-07-31T07:05:53.715Z,100.00
2022-07-31T07:08:20.136Z,100.00
2022-07-31T07:10:46.584Z,100.00
2022-07-31T07:13:12.977Z,100.00
2022-07-31T07:15:39.412Z,100.00
2022-07-31T07:18:06.826Z,100.00
2022-07-31T07:20:33.530Z,100.00
2022-07-31T07:23:00.002Z,100.00
2022-07-31T07:25:26.505Z,100.00
2022-07-31T07:27:53.669Z,100.00
2022-07-31T07:30:20.171Z,100.00
2022-07-31T07:32:46.577Z,100.00
2022-07-31T07:35:13.014Z,100.00
2022-07-31T07:37:40.579Z,100.00
2022-07-31T07:40:08.804Z,100.00
2022-07-31T07:42:35.395Z,100.00
2022-07-31T07:45:02.239Z,100.00
2022-07-31T07:47:53.683Z,100.00
2022-07-31T07:50:19.692Z,100.00
2022-07-31T07:52:46.336Z,100.00
2022-07-31T07:55:12.820Z,100.00
2022-07-31T07:57:39.848Z,100.00
2022-07-31T08:00:08.904Z,100.00
2022-07-31T08:02:35.532Z,100.00
2022-07-31T08:05:02.144Z,100.00
2022-07-31T08:07:42.649Z,100.00
2022-07-31T08:10:10.640Z,100.00
2022-07-31T08:12:37.151Z,100.00
2022-07-31T08:15:04.714Z,100.00
2022-07-31T08:17:31.347Z,100.00
2022-07-31T08:19:57.782Z,100.00
2022-07-31T08:22:24.676Z,100.00
2022-07-31T08:24:51.164Z,100.00
2022-07-31T08:27:40.185Z,100.00
2022-07-31T08:30:08.127Z,100.00
2022-07-31T08:32:34.674Z,100.00
2022-07-31T08:35:01.079Z,100.00
2022-07-31T08:38:01.290Z,100.00
2022-07-31T08:40:14.044Z,100.00
2022-07-31T08:42:40.565Z,100.00
2022-07-31T08:45:08.257Z,100.00
2022-07-31T08:47:36.173Z,100.00
2022-07-31T08:50:05.524Z,100.00
2022-07-31T08:52:34.419Z,100.00
2022-07-31T08:55:06.061Z,100.00
2022-07-31T08:57:32.587Z,100.00
2022-07-31T08:59:58.983Z,100.00
2022-07-31T09:02:25.460Z,100.00
2022-07-31T09:04:52.889Z,100.00
2022-07-31T09:07:19.680Z,100.00
2022-07-31T09:09:51.567Z,100.00
2022-07-31T09:12:33.240Z,100.00
2022-07-31T09:15:00.849Z,100.00
2022-07-31T09:17:35.664Z,100.00
2022-07-31T09:20:02.908Z,100.00
2022-07-31T09:22:30.685Z,100.00
2022-07-31T09:25:12.349Z,100.00
2022-07-31T09:27:39.486Z,100.00
2022-07-31T09:30:07.439Z,100.00
2022-07-31T09:32:33.953Z,100.00
2022-07-31T09:35:11.928Z,100.00
2022-07-31T09:37:39.324Z,99.69
2022-07-31T09:40:07.978Z,95.23
2022-07-31T09:42:38.240Z,99.30
2022-07-31T09:45:17.153Z,100.00
2022-07-31T09:47:43.615Z,98.03
2022-07-31T09:50:10.143Z,93.83
2022-07-31T09:52:36.576Z,94.67
2022-07-31T09:55:15.006Z,91.29
2022-07-31T09:57:55.203Z,98.45
2022-07-31T10:00:22.539Z,96.74
2022-07-31T10:02:49.682Z,100.00
2022-07-31T10:05:18.015Z,97.60
2022-07-31T10:07:46.292Z,98.25
2022-07-31T10:10:13.681Z,95.21
2022-07-31T10:12:42.693Z,94.37
2022-07-31T10:15:12.584Z,81.15
2022-07-31T10:17:44.616Z,83.73
2022-07-31T10:20:17.278Z,83.00
2022-07-31T10:22:47.871Z,80.46
2022-07-31T10:25:21.088Z,75.91
2022-07-31T10:27:48.717Z,78.26
2022-07-31T10:30:16.267Z,83.67
2022-07-31T10:32:43.740Z,81.92
2022-07-31T10:35:10.622Z,73.72
2022-07-31T10:37:45.111Z,69.78
2022-07-31T10:40:31.597Z,71.32
2022-07-31T10:43:14.616Z,72.78
2022-07-31T10:45:49.515Z,69.97
2022-07-31T10:48:16.497Z,72.91
2022-07-31T10:50:43.384Z,78.78
2022-07-31T10:53:12.413Z,67.70
2022-07-31T10:55:39.411Z,69.35
2022-07-31T10:58:10.192Z,68.79
2022-07-31T11:00:37.097Z,73.71
2022-07-31T11:03:20.568Z,73.41
2022-07-31T11:06:15.120Z,77.89
2022-07-31T11:08:43.585Z,78.30
2022-07-31T11:11:10.590Z,74.32
2022-07-31T11:13:51.212Z,72.33
2022-07-31T11:16:18.647Z,73.82
2022-07-31T11:19:01.103Z,65.93
2022-07-31T11:21:38.911Z,68.43
2022-07-31T11:24:23.439Z,66.95
2022-07-31T11:26:52.227Z,70.26
2022-07-31T11:30:02.011Z,72.33
2022-07-31T11:32:26.602Z,77.67
2022-07-31T11:34:55.712Z,75.41
2022-07-31T11:37:24.854Z,70.43
2022-07-31T11:39:53.422Z,67.91
2022-07-31T11:42:26.316Z,70.17
2022-07-31T11:45:02.192Z,70.17
2022-07-31T11:48:11.504Z,73.48
2022-07-31T11:50:30.918Z,78.55
2022-07-31T11:53:06.756Z,80.24
2022-07-31T11:55:46.069Z,74.58
2022-07-31T11:58:13.500Z,70.42
2022-07-31T12:00:47.721Z,66.17
2022-07-31T12:03:15.683Z,65.57
2022-07-31T12:05:47.701Z,66.66
2022-07-31T12:08:15.073Z,69.14
2022-07-31T12:10:42.906Z,76.10
2022-07-31T12:13:17.579Z,71.83
2022-07-31T12:15:55.260Z,72.45
2022-07-31T12:18:21.834Z,67.04
2022-07-31T12:21:00.121Z,61.53
2022-07-31T12:23:38.623Z,59.04
2022-07-31T12:26:10.440Z,64.11
2022-07-31T12:28:36.915Z,61.36
2022-07-31T12:31:03.473Z,60.21
2022-07-31T12:33:40.328Z,62.02
2022-07-31T12:36:14.925Z,67.03
2022-07-31T12:38:48.026Z,61.08
2022-07-31T12:41:15.466Z,64.18
2022-07-31T12:43:51.761Z,61.24
2022-07-31T12:46:37.717Z,64.08
2022-07-31T12:49:05.119Z,64.17
2022-07-31T12:51:44.775Z,63.92
2022-07-31T12:54:15.202Z,61.30
2022-07-31T12:56:42.049Z,61.41
2022-07-31T12:59:09.001Z,57.21
2022-07-31T13:01:36.747Z,56.99
2022-07-31T13:04:05.549Z,53.21
2022-07-31T13:06:34.923Z,55.36
2022-07-31T13:09:01.338Z,55.56
2022-07-31T13:11:30.634Z,55.28
2022-07-31T13:14:13.735Z,56.08
2022-07-31T13:16:40.183Z,54.91
2022-07-31T13:19:07.879Z,55.04
2022-07-31T13:21:48.100Z,54.12
2022-07-31T13:24:20.143Z,56.81
2022-07-31T13:26:47.699Z,57.39
2022-07-31T13:29:14.959Z,57.27
2022-07-31T13:31:41.792Z,55.29
2022-07-31T13:34:08.267Z,56.27
2022-07-31T13:36:38.610Z,58.79
2022-07-31T13:39:05.514Z,56.66
2022-07-31T13:41:34.156Z,56.25
2022-07-31T13:44:01.623Z,56.27
2022-07-31T13:46:29.097Z,54.69
2022-07-31T13:48:57.458Z,53.79
2022-07-31T13:51:28.666Z,55.37
2022-07-31T13:53:55.688Z,57.37
2022-07-31T13:56:38.743Z,55.86
2022-07-31T13:59:08.867Z,54.63
2022-07-31T14:02:04.781Z,59.35
2022-07-31T14:04:23.945Z,54.94
2022-07-31T14:06:50.638Z,55.35
2022-07-31T14:09:18.312Z,52.98
2022-07-31T14:11:44.759Z,53.97
2022-07-31T14:14:12.420Z,51.83
2022-07-31T14:16:41.827Z,53.01
2022-07-31T14:19:08.522Z,52.34
2022-07-31T14:21:35.124Z,51.52
2022-07-31T14:24:01.588Z,52.67
2022-07-31T14:26:28.065Z,51.18
2022-07-31T14:28:54.598Z,51.73
2022-07-31T14:31:21.283Z,54.66
2022-07-31T14:33:47.861Z,50.17
2022-07-31T14:36:14.516Z,51.02
2022-07-31T14:38:40.948Z,53.49
2022-07-31T14:41:07.351Z,55.50
2022-07-31T14:43:33.915Z,56.96
2022-07-31T14:46:00.395Z,58.95
2022-07-31T14:48:27.306Z,59.34
2022-07-31T14:50:53.903Z,59.40
2022-07-31T14:53:20.299Z,62.64
2022-07-31T14:55:46.721Z,59.80
2022-07-31T14:58:13.248Z,57.99
2022-07-31T15:00:39.705Z,57.98
2022-07-31T15:03:07.006Z,58.34
2022-07-31T15:06:50.797Z,58.95
2022-07-31T15:08:19.957Z,59.86
2022-07-31T15:10:46.539Z,58.36
2022-07-31T15:13:13.219Z,61.51
2022-07-31T15:15:39.732Z,58.41
2022-07-31T15:18:06.334Z,62.42
2022-07-31T15:20:35.266Z,63.36
2022-07-31T15:23:02.448Z,65.73
2022-07-31T15:25:29.589Z,71.53
2022-07-31T15:27:56.140Z,71.86
2022-07-31T15:30:23.070Z,73.50
2022-07-31T15:32:52.560Z,77.07
2022-07-31T15:35:19.240Z,76.14
2022-07-31T15:37:46.060Z,74.98
2022-07-31T15:40:14.831Z,73.63
2022-07-31T15:42:43.740Z,74.65
2022-07-31T15:45:15.631Z,75.65
2022-07-31T15:47:43.337Z,79.46
2022-07-31T15:50:12.744Z,80.71
2022-07-31T15:52:39.763Z,79.51
2022-07-31T15:55:07.257Z,80.03
2022-07-31T15:57:33.799Z,75.93
2022-07-31T16:00:00.632Z,74.46
2022-07-31T16:02:27.201Z,74.44
2022-07-31T16:04:55.594Z,76.39
2022-07-31T16:08:30.115Z,79.04
2022-07-31T16:10:17.482Z,79.63
2022-07-31T16:12:46.163Z,77.99
2022-07-31T16:15:13.273Z,80.35
2022-07-31T16:17:40.251Z,79.01
2022-07-31T16:20:10.608Z,78.32
2022-07-31T16:22:38.364Z,79.26
2022-07-31T16:25:06.950Z,83.28
2022-07-31T16:27:33.430Z,82.04
2022-07-31T16:30:02.049Z,82.14
2022-07-31T16:32:29.018Z,84.57
2022-07-31T16:35:00.163Z,82.41
2022-07-31T16:37:51.558Z,83.99
2022-07-31T16:40:29.201Z,87.11
2022-07-31T16:43:48.648Z,82.55
2022-07-31T16:45:49.118Z,85.84
2022-07-31T16:48:16.305Z,87.13
2022-07-31T16:50:42.689Z,87.39
2022-07-31T16:53:09.115Z,91.22
2022-07-31T16:55:46.183Z,86.95
2022-07-31T16:58:26.928Z,87.69
2022-07-31T17:00:53.429Z,89.56
2022-07-31T17:03:59.110Z,89.02
2022-07-31T17:06:10.214Z,86.74
2022-07-31T17:08:38.010Z,87.75
2022-07-31T17:11:04.752Z,86.90
2022-07-31T17:13:31.261Z,92.48
2022-07-31T17:15:57.684Z,92.89
2022-07-31T17:18:25.282Z,93.24
2022-07-31T17:20:53.347Z,92.72
2022-07-31T17:23:43.122Z,94.84
2022-07-31T17:26:10.147Z,93.90
2022-07-31T17:28:47.391Z,95.49
2022-07-31T17:31:13.815Z,94.59
2022-07-31T17:33:59.715Z,98.95
2022-07-31T17:36:27.124Z,99.04
2022-07-31T17:38:53.522Z,96.65
2022-07-31T17:41:24.882Z,95.59
2022-07-31T17:43:54.803Z,96.37
2022-07-31T17:46:34.524Z,98.83
2022-07-31T17:49:04.188Z,98.97
2022-07-31T17:51:30.875Z,100.00
2022-07-31T17:53:59.271Z,99.64
2022-07-31T17:56:26.724Z,99.93
2022-07-31T17:58:53.406Z,100.00
2022-07-31T18:01:19.837Z,100.00
2022-07-31T18:03:46.375Z,100.00
2022-07-31T18:06:12.820Z,100.00
2022-07-31T18:08:39.214Z,100.00
2022-07-31T18:11:06.483Z,100.00
2022-07-31T18:13:48.316Z,100.00
2022-07-31T18:16:18.672Z,100.00
2022-07-31T18:18:45.813Z,100.00
2022-07-31T18:21:12.357Z,100.00
2022-07-31T18:23:43.516Z,100.00
2022-07-31T18:26:13.854Z,100.00
2022-07-31T18:28:40.498Z,100.00
2022-07-31T18:31:30.750Z,100.00
2022-07-31T18:33:53.435Z,100.00
2022-07-31T18:36:21.098Z,100.00
2022-07-31T18:38:52.001Z,100.00
2022-07-31T18:41:18.895Z,100.00
2022-07-31T18:43:45.466Z,100.00
2022-07-31T18:46:12.115Z,100.00
2022-07-31T18:48:39.030Z,100.00
2022-07-31T18:51:05.746Z,100.00
2022-07-31T18:53:33.438Z,100.00
2022-07-31T18:56:00.319Z,100.00
2022-07-31T18:58:26.818Z,100.00
2022-07-31T19:00:55.153Z,100.00
2022-07-31T19:03:23.221Z,100.00
2022-07-31T19:05:50.811Z,100.00
2022-07-31T19:08:17.238Z,100.00
2022-07-31T19:10:43.701Z,100.00
2022-07-31T19:13:17.381Z,100.00
2022-07-31T19:15:47.459Z,100.00
2022-07-31T19:18:15.148Z,100.00
2022-07-31T19:21:00.074Z,100.00
2022-07-31T19:23:28.859Z,100.00
2022-07-31T19:26:04.043Z,100.00
2022-07-31T19:28:34.893Z,100.00
2022-07-31T19:31:01.501Z,100.00
2022-07-31T19:33:28.023Z,100.00
2022-07-31T19:36:00.973Z,100.00
2022-07-31T19:38:32.457Z,100.00
2022-07-31T19:40:59.485Z,100.00
2022-07-31T19:43:26.035Z,100.00
2022-07-31T19:46:00.623Z,100.00
2022-07-31T19:48:39.598Z,100.00
2022-07-31T19:51:06.128Z,100.00
2022-07-31T19:53:32.585Z,100.00
2022-07-31T19:56:01.158Z,100.00
2022-07-31T19:58:27.598Z,100.00
2022-07-31T20:00:54.025Z,100.00
2022-07-31T20:03:20.585Z,100.00
2022-07-31T20:05:47.049Z,100.00
2022-07-31T20:08:13.493Z,100.00
2022-07-31T20:10:39.956Z,100.00
2022-07-31T20:13:06.384Z,100.00
2022-07-31T20:15:51.578Z,100.00
2022-07-31T20:18:27.520Z,100.00
2022-07-31T20:21:14.975Z,100.00
2022-07-31T20:23:41.773Z,100.00
2022-07-31T20:26:11.980Z,100.00
2022-07-31T20:28:40.252Z,100.00
2022-07-31T20:31:16.185Z,100.00
2022-07-31T20:33:57.384Z,100.00
2022-07-31T20:36:26.176Z,100.00
2022-07-31T20:38:52.898Z,100.00
2022-07-31T20:41:19.978Z,100.00
2022-07-31T20:43:46.512Z,100.00
2022-07-31T20:46:16.643Z,100.00
2022-07-31T20:48:45.296Z,100.00
2022-07-31T20:51:19.190Z,100.00
2022-07-31T20:53:47.285Z,100.00
2022-07-31T20:56:14.164Z,100.00
2022-07-31T20:58:41.373Z,100.00
2022-07-31T21:01:08.135Z,100.00
2022-07-31T21:03:34.994Z,100.00
2022-07-31T21:06:01.861Z,100.00
2022-07-31T21:08:28.444Z,100.00
2022-07-31T21:10:54.984Z,100.00
2022-07-31T21:13:21.799Z,100.00
2022-07-31T21:15:48.529Z,100.00
2022-07-31T21:18:17.747Z,100.00
2022-07-31T21:20:52.852Z,100.00
2022-07-31T21:23:23.033Z,100.00
2022-07-31T21:25:54.009Z,100.00
2022-07-31T21:28:21.927Z,100.00
2022-07-31T21:30:48.863Z,100.00
2022-07-31T21:33:16.286Z,100.00
2022-07-31T21:35:43.079Z,100.00
2022-07-31T21:38:15.151Z,100.00
2022-07-31T21:40:42.458Z,100.00
2022-07-31T21:43:09.511Z,100.00
2022-07-31T21:45:50.964Z,100.00
2022-07-31T21:48:24.676Z,100.00
2022-07-31T21:50:51.634Z,100.00
2022-07-31T21:53:18.097Z,100.00
2022-07-31T21:55:44.864Z,100.00
2022-07-31T21:58:11.661Z,100.00
2022-07-31T22:00:39.406Z,100.00
2022-07-31T22:03:06.400Z,100.00
2022-07-31T22:05:52.913Z,100.00
2022-07-31T22:08:20.360Z,100.00
2022-07-31T22:10:49.253Z,100.00
2022-07-31T22:13:15.765Z,100.00
2022-07-31T22:15:55.386Z,100.00
2022-07-31T22:18:33.014Z,100.00
2022-07-31T22:21:01.447Z,100.00
2022-07-31T22:23:28.503Z,100.00
2022-07-31T22:25:55.493Z,100.00
2022-07-31T22:28:23.852Z,100.00
2022-07-31T22:30:51.177Z,100.00
2022-07-31T22:33:18.510Z,100.00
2022-07-31T22:35:45.394Z,100.00
2022-07-31T22:38:27.032Z,100.00
2022-07-31T22:40:55.022Z,100.00
2022-07-31T22:44:11.090Z,100.00
2022-07-31T22:46:11.786Z,100.00
2022-07-31T22:48:40.368Z,100.00
2022-07-31T22:51:07.131Z,100.00
2022-07-31T22:53:35.134Z,100.00
2022-07-31T22:56:01.978Z,100.00
2022-07-31T22:58:28.701Z,100.00
2022-07-31T23:00:55.365Z,100.00
2022-07-31T23:03:21.960Z,100.00
2022-07-31T23:06:03.022Z,100.00
2022-07-31T23:08:35.177Z,100.00
2022-07-31T23:11:01.625Z,100.00
2022-07-31T23:13:28.193Z,100.00
2022-07-31T23:15:54.657Z,100.00
2022-07-31T23:18:21.365Z,100.00
2022-07-31T23:20:47.912Z,100.00
2022-07-31T23:23:14.585Z,100.00
2022-07-31T23:25:41.052Z,100.00
2022-07-31T23:28:07.654Z,100.00
2022-07-31T23:30:34.236Z,100.00
2022-07-31T23:33:00.772Z,100.00
2022-07-31T23:35:27.273Z,100.00
2022-07-31T23:37:53.927Z,100.00
2022-07-31T23:40:20.435Z,100.00
2022-07-31T23:42:48.656Z,100.00
2022-07-31T23:45:15.322Z,100.00
2022-07-31T23:47:45.762Z,100.00
2022-07-31T23:50:13.183Z,100.00
2022-07-31T23:52:41.544Z,100.00
2022-07-31T23:55:08.538Z,100.00
2022-07-31T23:57:36.287Z,100.00
